Enterprise, Illinois
Current Conditions -  °F | °C
As of 6:35 PM on Wednesday 17 Dec 2014 (Local Time) from KFWC Reporting Station
Clear Clear  
Wind Chill: 25°   Ceiling: Unl
Heat Index: 30°   Visibility: 10mi
Dew Point: 26°   Wind: 5mph
Humidity: 86%   Direction: 20°NNE
Pressure: 30.29"   Gusts: NA
Location:  38.514°N, 88.3637°W
Report Text: KFWC 180035Z AUTO 02004KT 10SM CLR M01/M03 A3029 RMK AO1 T10101031
Loading
Personal Weather Stations






























Interactive Weather Map New forecast layout! Learn more

10-Day Weather Forecast

Advertisements
Track Severe Weather on mobile